Villa Alemana, Chile
Current Conditions -  °F | °C
As of 1:00 PM on Friday 21 Nov 2014 (Local Time) from SCVM Reporting Station
Clear Clear  
Wind Chill: 68°   Ceiling: Unl
Heat Index: 68°   Visibility: 6mi
Dew Point: 50°   Wind: 13mph
Humidity: 52%   Direction: 330°NNW
Pressure: 30.06"   Gusts: NA
Location:  33.04°S, 71.36°W
Report Text: SCVM 211700Z 33011KT CAVOK 20/10 Q1018
Loading
Personal Weather Stations






























Interactive Weather Map New forecast layout! Learn more

10-Day Weather Forecast

Advertisements
Track Severe Weather on mobile